sensor_id;sensor_type;location;lat;lon;timestamp;P1;durP1;ratioP1;P2;durP2;ratioP2
30872;SDS011;17579;42.690;2.586;2022-12-15T00:00:59;53.45;;;15.70;;
30872;SDS011;17579;42.690;2.586;2022-12-15T00:03:37;39.38;;;14.77;;
30872;SDS011;17579;42.690;2.586;2022-12-15T00:06:15;104.30;;;20.92;;
30872;SDS011;17579;42.690;2.586;2022-12-15T00:08:53;153.90;;;24.42;;
30872;SDS011;17579;42.690;2.586;2022-12-15T00:11:30;186.10;;;25.20;;
30872;SDS011;17579;42.690;2.586;2022-12-15T00:14:08;159.73;;;17.15;;
30872;SDS011;17579;42.690;2.586;2022-12-15T00:16:45;71.75;;;14.55;;
30872;SDS011;17579;42.690;2.586;2022-12-15T00:19:23;13.30;;;8.52;;
30872;SDS011;17579;42.690;2.586;2022-12-15T00:22:00;13.40;;;8.40;;
30872;SDS011;17579;42.690;2.586;2022-12-15T00:24:37;12.73;;;8.48;;
30872;SDS011;17579;42.690;2.586;2022-12-15T00:27:15;11.75;;;7.78;;
30872;SDS011;17579;42.690;2.586;2022-12-15T00:29:52;11.43;;;8.52;;
30872;SDS011;17579;42.690;2.586;2022-12-15T00:32:30;9.40;;;7.72;;
30872;SDS011;17579;42.690;2.586;2022-12-15T00:35:07;11.52;;;7.13;;
30872;SDS011;17579;42.690;2.586;2022-12-15T00:37:45;10.38;;;7.90;;
30872;SDS011;17579;42.690;2.586;2022-12-15T00:40:23;13.93;;;7.80;;
30872;SDS011;17579;42.690;2.586;2022-12-15T00:42:48;9.60;;;7.85;;
30872;SDS011;17579;42.690;2.586;2022-12-15T00:45:14;12.50;;;8.27;;
30872;SDS011;17579;42.690;2.586;2022-12-15T00:47:39;10.10;;;7.72;;
30872;SDS011;17579;42.690;2.586;2022-12-15T00:50:05;9.55;;;7.43;;
30872;SDS011;17579;42.690;2.586;2022-12-15T00:52:43;10.68;;;8.15;;
30872;SDS011;17579;42.690;2.586;2022-12-15T00:55:20;9.32;;;7.43;;
30872;SDS011;17579;42.690;2.586;2022-12-15T00:57:58;12.50;;;9.38;;
30872;SDS011;17579;42.690;2.586;2022-12-15T01:00:35;10.02;;;8.02;;
30872;SDS011;17579;42.690;2.586;2022-12-15T01:03:13;10.55;;;8.00;;
30872;SDS011;17579;42.690;2.586;2022-12-15T01:05:53;9.27;;;7.88;;
30872;SDS011;17579;42.690;2.586;2022-12-15T01:08:30;9.50;;;8.15;;
30872;SDS011;17579;42.690;2.586;2022-12-15T01:11:08;10.40;;;7.93;;
30872;SDS011;17579;42.690;2.586;2022-12-15T01:13:46;17.45;;;9.55;;
30872;SDS011;17579;42.690;2.586;2022-12-15T01:16:23;10.45;;;7.68;;
30872;SDS011;17579;42.690;2.586;2022-12-15T01:19:01;12.93;;;8.07;;
30872;SDS011;17579;42.690;2.586;2022-12-15T01:21:38;9.20;;;7.38;;
30872;SDS011;17579;42.690;2.586;2022-12-15T01:24:04;11.15;;;8.70;;
30872;SDS011;17579;42.690;2.586;2022-12-15T01:26:30;10.82;;;8.27;;
30872;SDS011;17579;42.690;2.586;2022-12-15T01:28:56;11.10;;;8.35;;
30872;SDS011;17579;42.690;2.586;2022-12-15T01:31:22;11.48;;;8.27;;
30872;SDS011;17579;42.690;2.586;2022-12-15T01:33:47;7.25;;;6.22;;
30872;SDS011;17579;42.690;2.586;2022-12-15T01:36:13;8.85;;;7.13;;
30872;SDS011;17579;42.690;2.586;2022-12-15T01:38:39;9.98;;;7.15;;
30872;SDS011;17579;42.690;2.586;2022-12-15T01:41:06;8.40;;;6.80;;
30872;SDS011;17579;42.690;2.586;2022-12-15T01:43:35;9.15;;;6.18;;
30872;SDS011;17579;42.690;2.586;2022-12-15T01:46:07;8.75;;;6.85;;
30872;SDS011;17579;42.690;2.586;2022-12-15T01:48:59;9.90;;;7.22;;
30872;SDS011;17579;42.690;2.586;2022-12-15T01:51:39;9.60;;;6.82;;
30872;SDS011;17579;42.690;2.586;2022-12-15T01:54:10;9.20;;;7.00;;
30872;SDS011;17579;42.690;2.586;2022-12-15T01:56:45;7.00;;;6.30;;
30872;SDS011;17579;42.690;2.586;2022-12-15T01:59:17;14.85;;;7.15;;
30872;SDS011;17579;42.690;2.586;2022-12-15T02:01:45;7.65;;;5.90;;
30872;SDS011;17579;42.690;2.586;2022-12-15T02:04:11;9.20;;;6.90;;
30872;SDS011;17579;42.690;2.586;2022-12-15T02:06:37;8.18;;;6.78;;
30872;SDS011;17579;42.690;2.586;2022-12-15T02:09:03;9.18;;;7.03;;
30872;SDS011;17579;42.690;2.586;2022-12-15T02:17:34;9.52;;;7.20;;
30872;SDS011;17579;42.690;2.586;2022-12-15T02:31:51;8.52;;;7.00;;
30872;SDS011;17579;42.690;2.586;2022-12-15T02:37:24;8.48;;;7.13;;
30872;SDS011;17579;42.690;2.586;2022-12-15T02:39:55;9.48;;;6.97;;
30872;SDS011;17579;42.690;2.586;2022-12-15T02:42:20;7.93;;;6.57;;
30872;SDS011;17579;42.690;2.586;2022-12-15T02:44:52;8.77;;;6.95;;
30872;SDS011;17579;42.690;2.586;2022-12-15T02:47:31;8.73;;;7.03;;
30872;SDS011;17579;42.690;2.586;2022-12-15T02:50:35;9.20;;;7.10;;
30872;SDS011;17579;42.690;2.586;2022-12-15T02:56:26;9.45;;;7.20;;
30872;SDS011;17579;42.690;2.586;2022-12-15T02:59:13;8.75;;;6.72;;
30872;SDS011;17579;42.690;2.586;2022-12-15T03:01:54;9.70;;;7.22;;
30872;SDS011;17579;42.690;2.586;2022-12-15T03:04:25;10.43;;;6.97;;
30872;SDS011;17579;42.690;2.586;2022-12-15T03:06:55;9.32;;;6.70;;
30872;SDS011;17579;42.690;2.586;2022-12-15T03:09:22;11.27;;;6.75;;
30872;SDS011;17579;42.690;2.586;2022-12-15T03:11:47;7.53;;;6.40;;
30872;SDS011;17579;42.690;2.586;2022-12-15T03:14:13;11.20;;;7.38;;
30872;SDS011;17579;42.690;2.586;2022-12-15T03:16:39;8.45;;;6.57;;
30872;SDS011;17579;42.690;2.586;2022-12-15T03:19:04;9.65;;;7.90;;
30872;SDS011;17579;42.690;2.586;2022-12-15T03:21:30;8.80;;;7.35;;
30872;SDS011;17579;42.690;2.586;2022-12-15T03:23:55;10.13;;;7.28;;
30872;SDS011;17579;42.690;2.586;2022-12-15T03:26:21;9.43;;;7.30;;
30872;SDS011;17579;42.690;2.586;2022-12-15T03:28:46;10.43;;;7.97;;
30872;SDS011;17579;42.690;2.586;2022-12-15T03:31:12;10.07;;;7.85;;
30872;SDS011;17579;42.690;2.586;2022-12-15T03:33:37;10.05;;;8.32;;
30872;SDS011;17579;42.690;2.586;2022-12-15T03:36:03;9.35;;;7.78;;
30872;SDS011;17579;42.690;2.586;2022-12-15T03:38:29;8.95;;;7.82;;
30872;SDS011;17579;42.690;2.586;2022-12-15T03:40:54;8.70;;;7.72;;
30872;SDS011;17579;42.690;2.586;2022-12-15T03:43:20;10.38;;;7.82;;
30872;SDS011;17579;42.690;2.586;2022-12-15T03:45:46;10.55;;;8.52;;
30872;SDS011;17579;42.690;2.586;2022-12-15T03:48:11;10.40;;;8.30;;
30872;SDS011;17579;42.690;2.586;2022-12-15T03:50:37;12.57;;;8.68;;
30872;SDS011;17579;42.690;2.586;2022-12-15T03:53:03;10.73;;;8.57;;
30872;SDS011;17579;42.690;2.586;2022-12-15T03:55:29;10.70;;;8.15;;
30872;SDS011;17579;42.690;2.586;2022-12-15T03:57:55;12.10;;;8.55;;
30872;SDS011;17579;42.690;2.586;2022-12-15T04:00:22;10.35;;;8.20;;
30872;SDS011;17579;42.690;2.586;2022-12-15T04:02:52;11.45;;;7.97;;
30872;SDS011;17579;42.690;2.586;2022-12-15T04:05:20;10.15;;;8.00;;
30872;SDS011;17579;42.690;2.586;2022-12-15T04:07:50;13.70;;;8.25;;
30872;SDS011;17579;42.690;2.586;2022-12-15T04:10:20;10.52;;;8.13;;
30872;SDS011;17579;42.690;2.586;2022-12-15T04:12:47;11.80;;;8.98;;
30872;SDS011;17579;42.690;2.586;2022-12-15T04:15:13;9.40;;;7.68;;
30872;SDS011;17579;42.690;2.586;2022-12-15T04:17:38;12.02;;;8.98;;
30872;SDS011;17579;42.690;2.586;2022-12-15T04:20:05;12.30;;;8.23;;
30872;SDS011;17579;42.690;2.586;2022-12-15T04:22:41;12.52;;;9.60;;
30872;SDS011;17579;42.690;2.586;2022-12-15T04:25:16;12.20;;;10.32;;
30872;SDS011;17579;42.690;2.586;2022-12-15T04:27:55;17.13;;;10.50;;
30872;SDS011;17579;42.690;2.586;2022-12-15T04:30:33;17.95;;;10.85;;
30872;SDS011;17579;42.690;2.586;2022-12-15T04:33:11;23.42;;;11.85;;
30872;SDS011;17579;42.690;2.586;2022-12-15T04:35:49;16.42;;;10.90;;
30872;SDS011;17579;42.690;2.586;2022-12-15T04:38:27;16.95;;;11.50;;
30872;SDS011;17579;42.690;2.586;2022-12-15T04:41:04;14.13;;;10.85;;
30872;SDS011;17579;42.690;2.586;2022-12-15T04:43:42;13.77;;;10.35;;
30872;SDS011;17579;42.690;2.586;2022-12-15T04:46:19;13.15;;;10.15;;
30872;SDS011;17579;42.690;2.586;2022-12-15T04:48:57;15.80;;;9.63;;
30872;SDS011;17579;42.690;2.586;2022-12-15T04:51:34;14.80;;;10.02;;
30872;SDS011;17579;42.690;2.586;2022-12-15T04:54:12;12.18;;;9.90;;
30872;SDS011;17579;42.690;2.586;2022-12-15T04:56:49;15.38;;;10.57;;
30872;SDS011;17579;42.690;2.586;2022-12-15T04:59:27;17.15;;;10.82;;
30872;SDS011;17579;42.690;2.586;2022-12-15T05:02:04;14.57;;;10.95;;
30872;SDS011;17579;42.690;2.586;2022-12-15T05:04:41;14.30;;;10.13;;
30872;SDS011;17579;42.690;2.586;2022-12-15T05:07:19;21.25;;;12.00;;
30872;SDS011;17579;42.690;2.586;2022-12-15T05:09:56;16.75;;;11.18;;
30872;SDS011;17579;42.690;2.586;2022-12-15T05:12:34;15.13;;;11.07;;
30872;SDS011;17579;42.690;2.586;2022-12-15T05:15:11;15.20;;;10.55;;
30872;SDS011;17579;42.690;2.586;2022-12-15T05:17:49;15.38;;;10.48;;
30872;SDS011;17579;42.690;2.586;2022-12-15T05:20:26;16.60;;;10.43;;
30872;SDS011;17579;42.690;2.586;2022-12-15T05:23:04;17.30;;;10.95;;
30872;SDS011;17579;42.690;2.586;2022-12-15T05:25:41;13.85;;;9.32;;
30872;SDS011;17579;42.690;2.586;2022-12-15T05:28:19;17.00;;;10.32;;
30872;SDS011;17579;42.690;2.586;2022-12-15T05:30:57;15.88;;;9.57;;
30872;SDS011;17579;42.690;2.586;2022-12-15T05:33:34;11.43;;;8.40;;
30872;SDS011;17579;42.690;2.586;2022-12-15T05:36:00;13.23;;;8.95;;
30872;SDS011;17579;42.690;2.586;2022-12-15T05:38:25;12.60;;;9.38;;
30872;SDS011;17579;42.690;2.586;2022-12-15T05:40:51;11.68;;;9.05;;
30872;SDS011;17579;42.690;2.586;2022-12-15T05:43:16;16.08;;;10.07;;
30872;SDS011;17579;42.690;2.586;2022-12-15T05:45:42;14.07;;;9.07;;
30872;SDS011;17579;42.690;2.586;2022-12-15T05:48:07;12.52;;;8.73;;
30872;SDS011;17579;42.690;2.586;2022-12-15T05:50:33;12.55;;;8.52;;
30872;SDS011;17579;42.690;2.586;2022-12-15T05:52:59;13.20;;;8.05;;
30872;SDS011;17579;42.690;2.586;2022-12-15T05:55:25;9.82;;;7.32;;
30872;SDS011;17579;42.690;2.586;2022-12-15T05:57:51;9.95;;;7.63;;
30872;SDS011;17579;42.690;2.586;2022-12-15T06:00:18;11.63;;;8.13;;
30872;SDS011;17579;42.690;2.586;2022-12-15T06:02:44;10.15;;;7.22;;
30872;SDS011;17579;42.690;2.586;2022-12-15T06:05:10;9.25;;;7.32;;
30872;SDS011;17579;42.690;2.586;2022-12-15T06:07:35;14.98;;;7.32;;
30872;SDS011;17579;42.690;2.586;2022-12-15T06:10:01;9.57;;;7.25;;
30872;SDS011;17579;42.690;2.586;2022-12-15T06:12:28;10.15;;;7.10;;
30872;SDS011;17579;42.690;2.586;2022-12-15T06:14:53;8.30;;;6.32;;
30872;SDS011;17579;42.690;2.586;2022-12-15T06:17:19;8.50;;;6.10;;
30872;SDS011;17579;42.690;2.586;2022-12-15T06:19:44;9.13;;;5.93;;
30872;SDS011;17579;42.690;2.586;2022-12-15T06:22:10;8.05;;;6.45;;
30872;SDS011;17579;42.690;2.586;2022-12-15T06:24:35;10.02;;;6.13;;
30872;SDS011;17579;42.690;2.586;2022-12-15T06:27:01;8.38;;;6.30;;
30872;SDS011;17579;42.690;2.586;2022-12-15T06:29:26;10.32;;;6.75;;
30872;SDS011;17579;42.690;2.586;2022-12-15T06:31:52;8.80;;;6.72;;
30872;SDS011;17579;42.690;2.586;2022-12-15T06:34:18;9.25;;;6.93;;
30872;SDS011;17579;42.690;2.586;2022-12-15T06:36:43;10.77;;;7.00;;
30872;SDS011;17579;42.690;2.586;2022-12-15T06:39:10;9.55;;;6.38;;
30872;SDS011;17579;42.690;2.586;2022-12-15T06:41:40;7.25;;;6.13;;
30872;SDS011;17579;42.690;2.586;2022-12-15T06:44:07;7.55;;;5.70;;
30872;SDS011;17579;42.690;2.586;2022-12-15T06:46:37;7.13;;;5.57;;
30872;SDS011;17579;42.690;2.586;2022-12-15T06:49:02;10.05;;;6.13;;
30872;SDS011;17579;42.690;2.586;2022-12-15T06:51:28;8.38;;;5.28;;
30872;SDS011;17579;42.690;2.586;2022-12-15T06:53:53;6.63;;;5.57;;
30872;SDS011;17579;42.690;2.586;2022-12-15T06:56:22;6.35;;;5.68;;
30872;SDS011;17579;42.690;2.586;2022-12-15T06:58:52;7.47;;;5.38;;
30872;SDS011;17579;42.690;2.586;2022-12-15T07:01:20;5.63;;;5.05;;
30872;SDS011;17579;42.690;2.586;2022-12-15T07:03:47;7.80;;;5.55;;
30872;SDS011;17579;42.690;2.586;2022-12-15T07:06:13;7.20;;;5.53;;
30872;SDS011;17579;42.690;2.586;2022-12-15T07:08:40;6.20;;;5.03;;
30872;SDS011;17579;42.690;2.586;2022-12-15T07:11:08;6.47;;;4.97;;
30872;SDS011;17579;42.690;2.586;2022-12-15T07:13:36;6.85;;;4.95;;
30872;SDS011;17579;42.690;2.586;2022-12-15T07:16:03;5.30;;;4.53;;
30872;SDS011;17579;42.690;2.586;2022-12-15T07:18:31;5.40;;;4.65;;
30872;SDS011;17579;42.690;2.586;2022-12-15T07:21:04;7.10;;;5.05;;
30872;SDS011;17579;42.690;2.586;2022-12-15T07:23:31;5.05;;;4.57;;
30872;SDS011;17579;42.690;2.586;2022-12-15T07:25:57;6.00;;;4.50;;
30872;SDS011;17579;42.690;2.586;2022-12-15T07:28:26;4.10;;;3.70;;
30872;SDS011;17579;42.690;2.586;2022-12-15T07:30:51;4.53;;;4.13;;
30872;SDS011;17579;42.690;2.586;2022-12-15T07:33:17;6.45;;;4.47;;
30872;SDS011;17579;42.690;2.586;2022-12-15T07:35:51;5.25;;;4.63;;
30872;SDS011;17579;42.690;2.586;2022-12-15T07:38:17;4.43;;;3.80;;
30872;SDS011;17579;42.690;2.586;2022-12-15T07:40:43;4.85;;;3.38;;
30872;SDS011;17579;42.690;2.586;2022-12-15T07:43:10;2.72;;;2.47;;
30872;SDS011;17579;42.690;2.586;2022-12-15T07:45:35;4.28;;;3.80;;
30872;SDS011;17579;42.690;2.586;2022-12-15T07:48:01;3.08;;;2.72;;
30872;SDS011;17579;42.690;2.586;2022-12-15T07:50:26;3.00;;;2.75;;
30872;SDS011;17579;42.690;2.586;2022-12-15T07:52:53;3.25;;;2.42;;
30872;SDS011;17579;42.690;2.586;2022-12-15T07:55:19;3.45;;;2.83;;
30872;SDS011;17579;42.690;2.586;2022-12-15T07:57:47;5.43;;;2.40;;
30872;SDS011;17579;42.690;2.586;2022-12-15T08:00:14;2.13;;;1.58;;
30872;SDS011;17579;42.690;2.586;2022-12-15T08:02:40;2.03;;;1.83;;
30872;SDS011;17579;42.690;2.586;2022-12-15T08:05:07;3.67;;;1.77;;
30872;SDS011;17579;42.690;2.586;2022-12-15T08:07:33;2.05;;;1.80;;
30872;SDS011;17579;42.690;2.586;2022-12-15T08:09:59;2.05;;;1.85;;
30872;SDS011;17579;42.690;2.586;2022-12-15T08:12:26;2.05;;;1.90;;
30872;SDS011;17579;42.690;2.586;2022-12-15T08:14:52;4.47;;;3.03;;
30872;SDS011;17579;42.690;2.586;2022-12-15T08:17:18;3.80;;;3.08;;
30872;SDS011;17579;42.690;2.586;2022-12-15T08:19:44;3.40;;;2.80;;
30872;SDS011;17579;42.690;2.586;2022-12-15T08:22:09;3.47;;;2.67;;
30872;SDS011;17579;42.690;2.586;2022-12-15T08:24:35;5.07;;;3.00;;
30872;SDS011;17579;42.690;2.586;2022-12-15T08:27:01;3.58;;;3.17;;
30872;SDS011;17579;42.690;2.586;2022-12-15T08:29:27;4.03;;;3.22;;
30872;SDS011;17579;42.690;2.586;2022-12-15T08:31:52;3.97;;;3.17;;
30872;SDS011;17579;42.690;2.586;2022-12-15T08:34:18;4.43;;;2.85;;
30872;SDS011;17579;42.690;2.586;2022-12-15T08:36:43;3.25;;;2.90;;
30872;SDS011;17579;42.690;2.586;2022-12-15T08:39:09;4.20;;;2.88;;
30872;SDS011;17579;42.690;2.586;2022-12-15T08:41:34;5.10;;;2.97;;
30872;SDS011;17579;42.690;2.586;2022-12-15T08:44:01;3.47;;;3.17;;
30872;SDS011;17579;42.690;2.586;2022-12-15T08:46:27;3.05;;;2.75;;
30872;SDS011;17579;42.690;2.586;2022-12-15T08:48:55;3.30;;;2.70;;
30872;SDS011;17579;42.690;2.586;2022-12-15T08:51:22;3.42;;;2.67;;
30872;SDS011;17579;42.690;2.586;2022-12-15T08:53:49;3.22;;;2.70;;
30872;SDS011;17579;42.690;2.586;2022-12-15T08:56:16;2.60;;;2.40;;
30872;SDS011;17579;42.690;2.586;2022-12-15T08:58:46;3.22;;;2.33;;
30872;SDS011;17579;42.690;2.586;2022-12-15T09:01:17;2.50;;;2.28;;
30872;SDS011;17579;42.690;2.586;2022-12-15T09:03:51;2.28;;;2.00;;
30872;SDS011;17579;42.690;2.586;2022-12-15T09:06:18;2.10;;;1.90;;
30872;SDS011;17579;42.690;2.586;2022-12-15T09:08:46;3.78;;;2.38;;
30872;SDS011;17579;42.690;2.586;2022-12-15T09:11:12;2.80;;;2.60;;
30872;SDS011;17579;42.690;2.586;2022-12-15T09:13:38;3.65;;;2.30;;
30872;SDS011;17579;42.690;2.586;2022-12-15T09:16:09;2.80;;;2.28;;
30872;SDS011;17579;42.690;2.586;2022-12-15T09:18:42;2.30;;;2.00;;
30872;SDS011;17579;42.690;2.586;2022-12-15T09:21:10;4.68;;;2.38;;
30872;SDS011;17579;42.690;2.586;2022-12-15T09:23:36;2.38;;;2.00;;
30872;SDS011;17579;42.690;2.586;2022-12-15T09:26:04;2.30;;;2.10;;
30872;SDS011;17579;42.690;2.586;2022-12-15T09:28:31;3.40;;;2.40;;
30872;SDS011;17579;42.690;2.586;2022-12-15T09:31:05;2.38;;;2.13;;
30872;SDS011;17579;42.690;2.586;2022-12-15T09:33:30;2.63;;;2.30;;
30872;SDS011;17579;42.690;2.586;2022-12-15T09:35:56;2.78;;;2.00;;
30872;SDS011;17579;42.690;2.586;2022-12-15T09:38:22;2.50;;;1.77;;
30872;SDS011;17579;42.690;2.586;2022-12-15T09:40:48;2.30;;;1.92;;
30872;SDS011;17579;42.690;2.586;2022-12-15T09:43:16;2.60;;;2.35;;
30872;SDS011;17579;42.690;2.586;2022-12-15T09:45:49;3.63;;;2.15;;
30872;SDS011;17579;42.690;2.586;2022-12-15T09:48:26;2.42;;;1.88;;
30872;SDS011;17579;42.690;2.586;2022-12-15T09:51:02;2.17;;;1.52;;
30872;SDS011;17579;42.690;2.586;2022-12-15T09:53:29;1.27;;;1.17;;
30872;SDS011;17579;42.690;2.586;2022-12-15T09:55:59;1.23;;;1.13;;
30872;SDS011;17579;42.690;2.586;2022-12-15T09:58:41;0.80;;;0.80;;
30872;SDS011;17579;42.690;2.586;2022-12-15T10:01:42;1.17;;;1.00;;
30872;SDS011;17579;42.690;2.586;2022-12-15T10:04:17;1.27;;;1.17;;
30872;SDS011;17579;42.690;2.586;2022-12-15T10:06:57;1.17;;;1.08;;
30872;SDS011;17579;42.690;2.586;2022-12-15T10:09:31;0.82;;;0.82;;
30872;SDS011;17579;42.690;2.586;2022-12-15T10:11:58;0.60;;;0.60;;
30872;SDS011;17579;42.690;2.586;2022-12-15T10:20:37;0.55;;;0.55;;
30872;SDS011;17579;42.690;2.586;2022-12-15T10:23:10;1.67;;;0.80;;
30872;SDS011;17579;42.690;2.586;2022-12-15T10:25:37;0.70;;;0.70;;
30872;SDS011;17579;42.690;2.586;2022-12-15T10:28:15;0.77;;;0.70;;
30872;SDS011;17579;42.690;2.586;2022-12-15T10:31:13;1.65;;;0.70;;
30872;SDS011;17579;42.690;2.586;2022-12-15T10:33:43;0.70;;;0.70;;
30872;SDS011;17579;42.690;2.586;2022-12-15T10:36:19;0.60;;;0.60;;
30872;SDS011;17579;42.690;2.586;2022-12-15T10:38:45;0.52;;;0.52;;
30872;SDS011;17579;42.690;2.586;2022-12-15T10:41:15;0.60;;;0.60;;
30872;SDS011;17579;42.690;2.586;2022-12-15T10:43:44;0.70;;;0.70;;
30872;SDS011;17579;42.690;2.586;2022-12-15T10:46:13;0.45;;;0.45;;
30872;SDS011;17579;42.690;2.586;2022-12-15T10:48:59;0.35;;;0.35;;
30872;SDS011;17579;42.690;2.586;2022-12-15T10:51:53;0.50;;;0.40;;
30872;SDS011;17579;42.690;2.586;2022-12-15T10:54:22;0.35;;;0.35;;
30872;SDS011;17579;42.690;2.586;2022-12-15T10:56:52;1.00;;;0.60;;
30872;SDS011;17579;42.690;2.586;2022-12-15T10:59:21;0.73;;;0.40;;
30872;SDS011;17579;42.690;2.586;2022-12-15T11:02:10;0.43;;;0.43;;
30872;SDS011;17579;42.690;2.586;2022-12-15T11:04:55;0.73;;;0.45;;
30872;SDS011;17579;42.690;2.586;2022-12-15T11:07:33;0.63;;;0.35;;
30872;SDS011;17579;42.690;2.586;2022-12-15T11:10:02;0.52;;;0.52;;
30872;SDS011;17579;42.690;2.586;2022-12-15T11:12:38;0.40;;;0.40;;
30872;SDS011;17579;42.690;2.586;2022-12-15T11:18:13;0.52;;;0.50;;
30872;SDS011;17579;42.690;2.586;2022-12-15T11:20:49;0.50;;;0.50;;
30872;SDS011;17579;42.690;2.586;2022-12-15T11:26:21;0.80;;;0.50;;
30872;SDS011;17579;42.690;2.586;2022-12-15T11:31:50;0.70;;;0.60;;
30872;SDS011;17579;42.690;2.586;2022-12-15T11:34:18;0.50;;;0.50;;
30872;SDS011;17579;42.690;2.586;2022-12-15T11:45:28;0.75;;;0.70;;
30872;SDS011;17579;42.690;2.586;2022-12-15T11:48:15;1.85;;;0.85;;
30872;SDS011;17579;42.690;2.586;2022-12-15T11:50:55;0.80;;;0.80;;
30872;SDS011;17579;42.690;2.586;2022-12-15T11:56:27;1.23;;;0.40;;
30872;SDS011;17579;42.690;2.586;2022-12-15T12:02:07;0.22;;;0.22;;
30872;SDS011;17579;42.690;2.586;2022-12-15T12:05:02;1.42;;;0.40;;
30872;SDS011;17579;42.690;2.586;2022-12-15T12:10:48;0.43;;;0.38;;
30872;SDS011;17579;42.690;2.586;2022-12-15T12:13:29;0.52;;;0.43;;
30872;SDS011;17579;42.690;2.586;2022-12-15T12:19:03;0.77;;;0.30;;
30872;SDS011;17579;42.690;2.586;2022-12-15T12:21:36;0.80;;;0.40;;
30872;SDS011;17579;42.690;2.586;2022-12-15T12:24:14;0.50;;;0.43;;
30872;SDS011;17579;42.690;2.586;2022-12-15T12:29:43;1.17;;;0.60;;
30872;SDS011;17579;42.690;2.586;2022-12-15T12:32:19;1.15;;;0.20;;
30872;SDS011;17579;42.690;2.586;2022-12-15T12:35:12;2.17;;;0.50;;
30872;SDS011;17579;42.690;2.586;2022-12-15T12:37:51;0.80;;;0.50;;
30872;SDS011;17579;42.690;2.586;2022-12-15T12:40:31;0.40;;;0.40;;
30872;SDS011;17579;42.690;2.586;2022-12-15T12:43:09;0.80;;;0.30;;
30872;SDS011;17579;42.690;2.586;2022-12-15T12:48:35;0.30;;;0.30;;
30872;SDS011;17579;42.690;2.586;2022-12-15T12:51:09;0.63;;;0.40;;
30872;SDS011;17579;42.690;2.586;2022-12-15T12:53:47;0.68;;;0.40;;
30872;SDS011;17579;42.690;2.586;2022-12-15T12:58:56;0.98;;;0.35;;
30872;SDS011;17579;42.690;2.586;2022-12-15T13:01:31;0.50;;;0.38;;
30872;SDS011;17579;42.690;2.586;2022-12-15T13:04:06;0.30;;;0.30;;
30872;SDS011;17579;42.690;2.586;2022-12-15T13:09:22;0.40;;;0.30;;
30872;SDS011;17579;42.690;2.586;2022-12-15T13:11:57;0.43;;;0.43;;
30872;SDS011;17579;42.690;2.586;2022-12-15T13:14:29;0.63;;;0.30;;
30872;SDS011;17579;42.690;2.586;2022-12-15T13:17:16;0.22;;;0.22;;
30872;SDS011;17579;42.690;2.586;2022-12-15T13:22:33;1.23;;;0.50;;
30872;SDS011;17579;42.690;2.586;2022-12-15T13:25:21;0.43;;;0.30;;
30872;SDS011;17579;42.690;2.586;2022-12-15T13:27:57;0.38;;;0.38;;
30872;SDS011;17579;42.690;2.586;2022-12-15T13:30:25;0.38;;;0.38;;
30872;SDS011;17579;42.690;2.586;2022-12-15T13:32:52;0.40;;;0.40;;
30872;SDS011;17579;42.690;2.586;2022-12-15T13:35:24;0.38;;;0.38;;
30872;SDS011;17579;42.690;2.586;2022-12-15T13:37:59;0.50;;;0.50;;
30872;SDS011;17579;42.690;2.586;2022-12-15T13:46:10;0.68;;;0.60;;
30872;SDS011;17579;42.690;2.586;2022-12-15T13:48:41;0.55;;;0.50;;
30872;SDS011;17579;42.690;2.586;2022-12-15T13:54:03;1.10;;;0.57;;
30872;SDS011;17579;42.690;2.586;2022-12-15T14:02:33;0.40;;;0.40;;
30872;SDS011;17579;42.690;2.586;2022-12-15T14:05:19;0.73;;;0.50;;
30872;SDS011;17579;42.690;2.586;2022-12-15T14:10:41;0.30;;;0.30;;
30872;SDS011;17579;42.690;2.586;2022-12-15T14:13:19;0.85;;;0.38;;
30872;SDS011;17579;42.690;2.586;2022-12-15T14:15:54;0.52;;;0.40;;
30872;SDS011;17579;42.690;2.586;2022-12-15T14:18:35;2.00;;;0.57;;
30872;SDS011;17579;42.690;2.586;2022-12-15T14:21:21;0.40;;;0.40;;
30872;SDS011;17579;42.690;2.586;2022-12-15T14:23:48;1.08;;;0.40;;
30872;SDS011;17579;42.690;2.586;2022-12-15T14:26:14;0.47;;;0.40;;
30872;SDS011;17579;42.690;2.586;2022-12-15T14:28:45;0.30;;;0.30;;
30872;SDS011;17579;42.690;2.586;2022-12-15T14:31:16;0.40;;;0.40;;
30872;SDS011;17579;42.690;2.586;2022-12-15T14:33:45;1.15;;;0.20;;
30872;SDS011;17579;42.690;2.586;2022-12-15T14:36:15;0.30;;;0.30;;
30872;SDS011;17579;42.690;2.586;2022-12-15T14:38:49;0.32;;;0.32;;
30872;SDS011;17579;42.690;2.586;2022-12-15T14:41:21;0.40;;;0.40;;
30872;SDS011;17579;42.690;2.586;2022-12-15T14:43:49;0.55;;;0.20;;
30872;SDS011;17579;42.690;2.586;2022-12-15T14:46:21;0.70;;;0.40;;
30872;SDS011;17579;42.690;2.586;2022-12-15T14:48:50;0.30;;;0.30;;
30872;SDS011;17579;42.690;2.586;2022-12-15T14:51:27;0.35;;;0.30;;
30872;SDS011;17579;42.690;2.586;2022-12-15T14:53:54;0.20;;;0.20;;
30872;SDS011;17579;42.690;2.586;2022-12-15T14:56:22;0.50;;;0.50;;
30872;SDS011;17579;42.690;2.586;2022-12-15T15:01:49;0.40;;;0.40;;
30872;SDS011;17579;42.690;2.586;2022-12-15T15:04:24;0.40;;;0.40;;
30872;SDS011;17579;42.690;2.586;2022-12-15T15:06:57;0.40;;;0.40;;
30872;SDS011;17579;42.690;2.586;2022-12-15T15:09:26;0.30;;;0.30;;
30872;SDS011;17579;42.690;2.586;2022-12-15T15:11:55;1.05;;;0.40;;
30872;SDS011;17579;42.690;2.586;2022-12-15T15:14:36;0.85;;;0.45;;
30872;SDS011;17579;42.690;2.586;2022-12-15T15:17:07;0.20;;;0.20;;
30872;SDS011;17579;42.690;2.586;2022-12-15T15:19:48;0.50;;;0.40;;
30872;SDS011;17579;42.690;2.586;2022-12-15T15:22:38;0.47;;;0.40;;
30872;SDS011;17579;42.690;2.586;2022-12-15T15:30:59;0.68;;;0.30;;
30872;SDS011;17579;42.690;2.586;2022-12-15T15:33:32;0.50;;;0.50;;
30872;SDS011;17579;42.690;2.586;2022-12-15T15:35:59;0.22;;;0.22;;
30872;SDS011;17579;42.690;2.586;2022-12-15T15:38:30;0.50;;;0.50;;
30872;SDS011;17579;42.690;2.586;2022-12-15T15:41:10;1.38;;;0.40;;
30872;SDS011;17579;42.690;2.586;2022-12-15T15:43:43;0.98;;;0.40;;
30872;SDS011;17579;42.690;2.586;2022-12-15T15:46:13;0.50;;;0.40;;
30872;SDS011;17579;42.690;2.586;2022-12-15T15:48:44;0.60;;;0.40;;
30872;SDS011;17579;42.690;2.586;2022-12-15T15:51:12;0.50;;;0.50;;
30872;SDS011;17579;42.690;2.586;2022-12-15T15:53:38;0.28;;;0.28;;
30872;SDS011;17579;42.690;2.586;2022-12-15T15:56:04;0.28;;;0.28;;
30872;SDS011;17579;42.690;2.586;2022-12-15T15:58:33;0.20;;;0.20;;
30872;SDS011;17579;42.690;2.586;2022-12-15T16:00:59;0.32;;;0.32;;
30872;SDS011;17579;42.690;2.586;2022-12-15T16:03:25;0.30;;;0.30;;
30872;SDS011;17579;42.690;2.586;2022-12-15T16:05:51;0.80;;;0.50;;
30872;SDS011;17579;42.690;2.586;2022-12-15T16:08:18;0.30;;;0.30;;
30872;SDS011;17579;42.690;2.586;2022-12-15T16:10:48;0.47;;;0.35;;
30872;SDS011;17579;42.690;2.586;2022-12-15T16:13:15;1.45;;;0.60;;
30872;SDS011;17579;42.690;2.586;2022-12-15T16:15:42;0.60;;;0.60;;
30872;SDS011;17579;42.690;2.586;2022-12-15T16:18:08;0.80;;;0.65;;
30872;SDS011;17579;42.690;2.586;2022-12-15T16:20:34;0.70;;;0.70;;
30872;SDS011;17579;42.690;2.586;2022-12-15T16:23:12;1.00;;;0.90;;
30872;SDS011;17579;42.690;2.586;2022-12-15T16:25:42;0.60;;;0.60;;
30872;SDS011;17579;42.690;2.586;2022-12-15T16:28:10;0.93;;;0.90;;
30872;SDS011;17579;42.690;2.586;2022-12-15T16:30:39;1.05;;;0.80;;
30872;SDS011;17579;42.690;2.586;2022-12-15T16:33:05;2.47;;;1.00;;
30872;SDS011;17579;42.690;2.586;2022-12-15T16:35:31;0.85;;;0.82;;
30872;SDS011;17579;42.690;2.586;2022-12-15T16:37:57;0.55;;;0.55;;
30872;SDS011;17579;42.690;2.586;2022-12-15T16:40:23;0.50;;;0.50;;
30872;SDS011;17579;42.690;2.586;2022-12-15T16:42:53;0.70;;;0.60;;
30872;SDS011;17579;42.690;2.586;2022-12-15T16:45:21;1.38;;;0.52;;
30872;SDS011;17579;42.690;2.586;2022-12-15T16:47:48;1.85;;;0.65;;